Time;durP1;ratioP1;P1;durP2;ratioP2;P2;SDS_P1;SDS_P2;PMS_P1;PMS_P2;Temp;Humidity;BMP_temperature;BMP_pressure;BME280_temperature;BME280_humidity;BME280_pressure;Samples;Min_cycle;Max_cycle;Signal;HPM_P1;HPM_P2
2021/01/22 00:00:28;;;;;;;;;0.00;0.00;;;;;;;;5002916;28;11468;-94
2021/01/22 00:02:56;;;;;;;;;0.00;0.00;;;;;;;;5001693;28;11505;-86
2021/01/22 00:05:22;;;;;;;;;0.00;0.00;;;;;;;;4984814;28;12231;-91
2021/01/22 00:07:49;;;;;;;;;0.00;0.00;;;;;;;;5001236;28;11551;-85
2021/01/22 00:10:16;;;;;;;;;0.00;0.00;;;;;;;;5003442;28;11513;-87
2021/01/22 00:12:43;;;;;;;;;0.00;0.00;;;;;;;;5011284;28;11509;-83
2021/01/22 00:15:11;;;;;;;;;0.00;0.00;;;;;;;;5000586;28;11488;-84
2021/01/22 00:17:38;;;;;;;;;0.00;0.00;;;;;;;;5002070;28;11659;-86
2021/01/22 00:20:07;;;;;;;;;0.00;0.00;;;;;;;;4999037;28;11618;-85
2021/01/22 00:22:34;;;;;;;;;0.00;0.00;;;;;;;;5000413;28;11528;-87
2021/01/22 00:25:02;;;;;;;;;0.00;0.00;;;;;;;;4987029;28;11501;-87
2021/01/22 00:27:28;;;;;;;;;0.00;0.00;;;;;;;;4981671;28;11509;-86
2021/01/22 00:29:55;;;;;;;;;0.00;0.00;;;;;;;;5001007;28;11495;-87
2021/01/22 00:32:22;;;;;;;;;0.00;0.00;;;;;;;;4999899;28;11452;-87
2021/01/22 00:34:49;;;;;;;;;0.00;0.00;;;;;;;;4998846;28;11528;-87
2021/01/22 00:37:17;;;;;;;;;0.00;0.00;;;;;;;;4997695;28;11578;-87
2021/01/22 00:39:44;;;;;;;;;0.00;0.00;;;;;;;;5008172;28;11579;-85
2021/01/22 00:42:11;;;;;;;;;0.00;0.00;;;;;;;;5004011;28;11523;-89
2021/01/22 00:44:38;;;;;;;;;0.00;0.00;;;;;;;;4986617;28;11512;-88
2021/01/22 00:47:05;;;;;;;;;0.00;0.00;;;;;;;;5004427;28;11607;-89
2021/01/22 00:49:32;;;;;;;;;0.00;0.00;;;;;;;;4983875;28;11535;-84
2021/01/22 00:51:58;;;;;;;;;0.00;0.00;;;;;;;;5005837;28;11522;-89
2021/01/22 00:54:26;;;;;;;;;0.00;0.00;;;;;;;;4985176;28;11507;-90
2021/01/22 00:56:53;;;;;;;;;0.00;0.00;;;;;;;;5004329;28;11509;-88
2021/01/22 00:59:20;;;;;;;;;0.00;0.00;;;;;;;;4986703;28;11535;-89
2021/01/22 01:01:47;;;;;;;;;0.00;0.00;;;;;;;;5000476;28;11510;-85
2021/01/22 01:04:15;;;;;;;;;0.00;0.00;;;;;;;;5009938;28;11477;-84
2021/01/22 01:06:42;;;;;;;;;0.00;0.00;;;;;;;;5002847;28;11481;-85
2021/01/22 01:09:09;;;;;;;;;1.00;0.00;;;;;;;;4998749;28;11551;-86
2021/01/22 01:11:38;;;;;;;;;0.00;0.00;;;;;;;;4985869;28;11528;-85
2021/01/22 01:14:05;;;;;;;;;1.00;0.00;;;;;;;;4986120;28;11534;-85
2021/01/22 01:16:32;;;;;;;;;0.00;0.00;;;;;;;;5003492;28;11498;-85
2021/01/22 01:18:59;;;;;;;;;0.00;0.00;;;;;;;;5007313;28;11512;-88
2021/01/22 01:21:26;;;;;;;;;0.00;0.00;;;;;;;;5006514;28;11495;-84
2021/01/22 01:23:53;;;;;;;;;0.00;0.00;;;;;;;;4993131;28;11489;-83
2021/01/22 01:26:21;;;;;;;;;0.00;0.00;;;;;;;;5009180;28;11509;-80
2021/01/22 01:28:49;;;;;;;;;0.00;0.00;;;;;;;;5002330;28;11537;-79
2021/01/22 01:31:16;;;;;;;;;0.00;0.00;;;;;;;;4981617;28;11445;-87
2021/01/22 01:33:43;;;;;;;;;0.00;0.00;;;;;;;;5003256;28;11524;-82
2021/01/22 01:36:10;;;;;;;;;0.00;0.00;;;;;;;;4983782;28;12318;-90
2021/01/22 01:38:37;;;;;;;;;0.00;0.00;;;;;;;;5002799;28;11502;-87
2021/01/22 01:41:05;;;;;;;;;0.00;0.00;;;;;;;;5006131;28;11497;-87
2021/01/22 01:43:31;;;;;;;;;0.00;0.00;;;;;;;;5005433;28;11577;-88
2021/01/22 01:45:59;;;;;;;;;0.00;0.00;;;;;;;;5002901;28;11488;-90
2021/01/22 01:48:26;;;;;;;;;0.00;0.00;;;;;;;;4981135;28;11571;-91
2021/01/22 01:50:54;;;;;;;;;0.00;0.00;;;;;;;;5003973;28;11507;-88
2021/01/22 01:53:22;;;;;;;;;0.00;0.00;;;;;;;;4985464;28;11502;-84
2021/01/22 01:55:49;;;;;;;;;0.00;0.00;;;;;;;;5003487;28;11526;-83
2021/01/22 01:58:16;;;;;;;;;0.00;0.00;;;;;;;;5000578;28;11517;-78
2021/01/22 02:00:43;;;;;;;;;0.00;0.00;;;;;;;;5003527;28;11438;-80
2021/01/22 02:03:11;;;;;;;;;0.00;0.00;;;;;;;;5002697;28;11531;-85
2021/01/22 02:05:38;;;;;;;;;0.00;0.00;;;;;;;;5004513;28;11533;-88
2021/01/22 02:08:05;;;;;;;;;0.00;0.00;;;;;;;;5003244;28;11527;-87
2021/01/22 02:10:33;;;;;;;;;0.00;0.00;;;;;;;;5008071;28;11541;-88
2021/01/22 02:13:02;;;;;;;;;0.00;0.00;;;;;;;;5005489;28;11528;-88
2021/01/22 02:15:29;;;;;;;;;0.00;0.00;;;;;;;;5007378;28;11564;-89
2021/01/22 02:17:57;;;;;;;;;0.00;0.00;;;;;;;;5009119;28;11523;-82
2021/01/22 02:20:36;;;;;;;;;0.00;0.00;;;;;;;;5005002;28;11512;-88
2021/01/22 02:23:04;;;;;;;;;0.00;0.00;;;;;;;;5004896;28;11518;-87
2021/01/22 02:25:33;;;;;;;;;0.00;0.00;;;;;;;;5001208;28;11535;-89
2021/01/22 02:28:01;;;;;;;;;0.00;0.00;;;;;;;;5008230;28;11507;-86
2021/01/22 02:30:28;;;;;;;;;0.00;0.00;;;;;;;;5004587;28;11525;-90
2021/01/22 02:32:55;;;;;;;;;0.00;0.00;;;;;;;;4982049;28;11532;-85
2021/01/22 02:35:23;;;;;;;;;0.00;0.00;;;;;;;;5003779;28;11511;-89
2021/01/22 02:37:50;;;;;;;;;0.00;0.00;;;;;;;;5005544;28;11508;-80
2021/01/22 02:40:19;;;;;;;;;0.00;0.00;;;;;;;;5010433;28;11520;-81
2021/01/22 02:42:49;;;;;;;;;0.00;0.00;;;;;;;;5004705;28;11603;-90
2021/01/22 02:45:18;;;;;;;;;0.00;0.00;;;;;;;;5005552;28;11508;-81
2021/01/22 02:47:46;;;;;;;;;0.00;0.00;;;;;;;;5005454;28;11539;-80
2021/01/22 02:50:17;;;;;;;;;1.00;0.00;;;;;;;;5005922;28;11546;-86
2021/01/22 02:52:44;;;;;;;;;0.00;0.00;;;;;;;;5005275;28;11555;-78
2021/01/22 02:55:13;;;;;;;;;0.00;0.00;;;;;;;;5004694;28;11523;-90
2021/01/22 02:57:48;;;;;;;;;0.00;0.00;;;;;;;;5006707;28;11514;-91
2021/01/22 03:00:19;;;;;;;;;2.00;2.00;;;;;;;;5004900;28;11502;-87
2021/01/22 03:02:50;;;;;;;;;0.50;0.50;;;;;;;;4987411;28;11505;-90
2021/01/22 03:05:18;;;;;;;;;0.00;0.00;;;;;;;;5001008;28;11524;-89
2021/01/22 03:07:47;;;;;;;;;0.75;0.75;;;;;;;;4988430;28;11519;-89
2021/01/22 03:10:17;;;;;;;;;0.00;0.00;;;;;;;;5003646;28;11536;-88
2021/01/22 03:12:47;;;;;;;;;0.50;0.50;;;;;;;;5005475;28;11650;-88
2021/01/22 03:15:16;;;;;;;;;0.00;0.00;;;;;;;;5005620;28;12342;-90
2021/01/22 03:17:43;;;;;;;;;0.00;0.00;;;;;;;;4982653;28;11531;-88
2021/01/22 03:20:12;;;;;;;;;0.00;0.00;;;;;;;;5002265;28;11517;-88
2021/01/22 03:22:39;;;;;;;;;0.50;0.50;;;;;;;;4998693;28;12295;-80
2021/01/22 03:25:07;;;;;;;;;0.00;0.00;;;;;;;;5001561;28;11551;-86
2021/01/22 03:27:34;;;;;;;;;0.00;0.00;;;;;;;;5006738;28;11520;-86
2021/01/22 03:30:01;;;;;;;;;0.00;0.00;;;;;;;;4971218;28;11519;-85
2021/01/22 03:32:29;;;;;;;;;0.00;0.00;;;;;;;;5003172;28;13004;-85
2021/01/22 03:34:56;;;;;;;;;0.00;0.00;;;;;;;;5003564;28;11532;-87
2021/01/22 03:37:23;;;;;;;;;6.75;6.75;;;;;;;;5006171;28;11632;-86
2021/01/22 03:39:50;;;;;;;;;0.00;0.00;;;;;;;;4985619;28;11613;-86
2021/01/22 03:42:16;;;;;;;;;1.00;0.00;;;;;;;;5004400;28;11515;-78
2021/01/22 03:44:43;;;;;;;;;0.00;0.00;;;;;;;;5004746;28;11518;-90
2021/01/22 03:47:10;;;;;;;;;0.00;0.00;;;;;;;;5004820;28;11615;-80
2021/01/22 03:49:38;;;;;;;;;0.00;0.00;;;;;;;;5004971;28;11527;-82
2021/01/22 03:52:05;;;;;;;;;0.00;0.00;;;;;;;;4986661;28;11546;-86
2021/01/22 03:54:32;;;;;;;;;0.00;0.00;;;;;;;;5006074;28;11520;-90
2021/01/22 03:56:59;;;;;;;;;0.00;0.00;;;;;;;;5003694;28;11628;-84
2021/01/22 03:59:25;;;;;;;;;0.00;0.00;;;;;;;;5004804;28;11520;-82
2021/01/22 04:01:52;;;;;;;;;0.75;0.75;;;;;;;;5004197;28;11443;-86
2021/01/22 04:04:19;;;;;;;;;0.00;0.00;;;;;;;;5000331;28;11541;-85
2021/01/22 04:06:47;;;;;;;;;0.00;0.00;;;;;;;;5000006;28;11491;-87
2021/01/22 04:09:14;;;;;;;;;0.00;0.00;;;;;;;;4984031;28;11514;-87
2021/01/22 04:11:41;;;;;;;;;1.25;0.00;;;;;;;;5006092;28;11588;-84
2021/01/22 04:14:15;;;;;;;;;0.00;0.00;;;;;;;;4986403;28;11585;-90
2021/01/22 04:16:42;;;;;;;;;0.00;0.00;;;;;;;;5004218;28;11533;-90
2021/01/22 04:19:09;;;;;;;;;0.00;0.00;;;;;;;;4987089;28;11558;-87
2021/01/22 04:21:35;;;;;;;;;0.00;0.00;;;;;;;;4987435;28;11547;-83
2021/01/22 04:24:03;;;;;;;;;5.75;5.00;;;;;;;;5004593;28;11514;-88
2021/01/22 04:26:30;;;;;;;;;0.75;0.00;;;;;;;;5003829;28;11569;-84
2021/01/22 04:28:57;;;;;;;;;0.00;0.00;;;;;;;;5004384;28;11601;-89
2021/01/22 04:31:24;;;;;;;;;0.00;0.00;;;;;;;;5002550;28;11503;-88
2021/01/22 04:33:51;;;;;;;;;0.00;0.00;;;;;;;;5005388;28;11529;-88
2021/01/22 04:36:18;;;;;;;;;0.00;0.00;;;;;;;;5004028;28;11551;-88
2021/01/22 04:38:45;;;;;;;;;0.00;0.00;;;;;;;;4987212;28;11511;-90
2021/01/22 04:41:13;;;;;;;;;0.00;0.00;;;;;;;;4987549;28;11492;-87
2021/01/22 04:43:44;;;;;;;;;0.00;0.00;;;;;;;;5003417;28;11528;-91
2021/01/22 04:46:11;;;;;;;;;0.00;0.00;;;;;;;;4988268;28;11562;-89
2021/01/22 04:48:38;;;;;;;;;0.75;0.75;;;;;;;;5003899;28;11637;-88
2021/01/22 04:51:06;;;;;;;;;0.00;0.00;;;;;;;;5004051;28;11596;-90
2021/01/22 04:53:35;;;;;;;;;0.00;0.00;;;;;;;;5003426;28;11662;-89
2021/01/22 04:56:05;;;;;;;;;0.50;0.00;;;;;;;;5003377;28;12288;-87
2021/01/22 04:58:34;;;;;;;;;0.00;0.00;;;;;;;;4980262;28;11513;-90
2021/01/22 05:01:01;;;;;;;;;0.00;0.00;;;;;;;;5002128;28;11471;-85
2021/01/22 05:03:28;;;;;;;;;0.00;0.00;;;;;;;;5003844;28;11496;-87
2021/01/22 05:05:57;;;;;;;;;0.00;0.00;;;;;;;;5003152;28;11516;-89
2021/01/22 05:08:24;;;;;;;;;0.75;0.75;;;;;;;;4999327;28;12257;-89
2021/01/22 05:10:51;;;;;;;;;0.00;0.00;;;;;;;;5002762;28;11506;-88
2021/01/22 05:13:18;;;;;;;;;0.00;0.00;;;;;;;;5002964;28;11534;-85
2021/01/22 05:16:09;;;;;;;;;0.00;0.00;;;;;;;;5004401;28;11559;-81
2021/01/22 05:18:35;;;;;;;;;0.00;0.00;;;;;;;;5002910;28;11659;-81
2021/01/22 05:21:07;;;;;;;;;0.00;0.00;;;;;;;;4995644;28;11551;-81
2021/01/22 05:23:37;;;;;;;;;0.00;0.00;;;;;;;;5001204;28;11532;-78
2021/01/22 05:26:06;;;;;;;;;0.00;0.00;;;;;;;;4998793;28;11527;-80
2021/01/22 05:28:35;;;;;;;;;0.00;0.00;;;;;;;;5003070;28;11516;-85
2021/01/22 05:31:03;;;;;;;;;0.00;0.00;;;;;;;;5003622;28;11469;-81
2021/01/22 05:33:30;;;;;;;;;0.00;0.00;;;;;;;;4998376;28;12294;-84
2021/01/22 05:35:57;;;;;;;;;0.00;0.00;;;;;;;;4984553;28;11545;-84
2021/01/22 05:38:40;;;;;;;;;0.00;0.00;;;;;;;;4989827;28;11496;-84
2021/01/22 05:41:08;;;;;;;;;0.00;0.00;;;;;;;;5002585;28;11583;-83
2021/01/22 05:43:36;;;;;;;;;0.00;0.00;;;;;;;;5004049;28;11560;-82
2021/01/22 05:46:10;;;;;;;;;0.00;0.00;;;;;;;;4990487;28;11544;-84
2021/01/22 05:48:37;;;;;;;;;2.00;0.00;;;;;;;;5006875;28;11509;-81
2021/01/22 05:51:04;;;;;;;;;0.00;0.00;;;;;;;;5007761;28;11537;-81
2021/01/22 05:53:31;;;;;;;;;0.00;0.00;;;;;;;;5005329;28;12292;-82
2021/01/22 05:56:08;;;;;;;;;0.50;0.00;;;;;;;;5007497;28;11524;-81
2021/01/22 05:58:36;;;;;;;;;0.00;0.00;;;;;;;;5003095;28;11515;-81
2021/01/22 06:01:08;;;;;;;;;0.00;0.00;;;;;;;;5007372;28;12200;-80
2021/01/22 06:03:35;;;;;;;;;2.00;0.75;;;;;;;;5005464;28;11546;-82
2021/01/22 06:06:03;;;;;;;;;1.00;1.00;;;;;;;;4996166;28;11554;-80
2021/01/22 06:08:30;;;;;;;;;1.50;0.75;;;;;;;;5004819;28;11643;-80
2021/01/22 06:10:57;;;;;;;;;1.00;1.00;;;;;;;;5002056;28;11566;-84
2021/01/22 06:13:26;;;;;;;;;4.50;2.00;;;;;;;;4998883;28;11555;-81
2021/01/22 06:15:57;;;;;;;;;1.50;0.25;;;;;;;;4997102;28;11541;-80
2021/01/22 06:18:32;;;;;;;;;1.00;1.00;;;;;;;;5001710;28;11526;-81
2021/01/22 06:21:10;;;;;;;;;1.00;1.00;;;;;;;;4999663;28;11518;-84
2021/01/22 06:23:38;;;;;;;;;2.00;2.00;;;;;;;;5002902;28;11575;-82
2021/01/22 06:26:05;;;;;;;;;1.00;1.00;;;;;;;;5000305;28;11530;-81
2021/01/22 06:28:32;;;;;;;;;1.75;1.75;;;;;;;;4998380;28;11536;-82
2021/01/22 06:30:59;;;;;;;;;1.00;1.00;;;;;;;;4992130;28;11565;-81
2021/01/22 06:33:26;;;;;;;;;3.25;2.00;;;;;;;;4992856;28;11539;-82
2021/01/22 06:35:56;;;;;;;;;1.50;1.50;;;;;;;;4995667;28;11656;-79
2021/01/22 06:38:23;;;;;;;;;2.00;2.00;;;;;;;;4992697;28;11507;-84
2021/01/22 06:40:51;;;;;;;;;0.00;0.00;;;;;;;;4997366;28;11646;-81
2021/01/22 06:43:19;;;;;;;;;0.75;0.75;;;;;;;;4996567;28;11507;-81
2021/01/22 06:45:46;;;;;;;;;1.00;1.00;;;;;;;;4975690;28;11553;-84
2021/01/22 06:48:18;;;;;;;;;1.00;1.00;;;;;;;;5001988;28;11529;-85
2021/01/22 06:50:45;;;;;;;;;1.00;1.00;;;;;;;;4995101;28;12350;-84
2021/01/22 06:53:17;;;;;;;;;3.25;1.00;;;;;;;;4995502;28;11546;-82
2021/01/22 06:56:15;;;;;;;;;2.00;2.00;;;;;;;;4997055;28;11524;-74
2021/01/22 06:58:42;;;;;;;;;1.00;1.00;;;;;;;;4992830;28;11576;-72
2021/01/22 07:01:31;;;;;;;;;1.00;1.00;;;;;;;;4996889;28;11473;-72
2021/01/22 07:03:58;;;;;;;;;4.00;1.00;;;;;;;;5001789;28;11537;-72
2021/01/22 07:06:54;;;;;;;;;1.50;1.50;;;;;;;;5004625;28;11519;-72
2021/01/22 07:09:23;;;;;;;;;1.75;1.75;;;;;;;;5004435;28;11630;-71
2021/01/22 07:11:57;;;;;;;;;1.00;1.00;;;;;;;;4992907;28;11532;-69
2021/01/22 07:14:41;;;;;;;;;1.00;1.00;;;;;;;;5001319;28;11499;-73
2021/01/22 07:17:15;;;;;;;;;2.00;2.00;;;;;;;;5007547;28;11591;-73
2021/01/22 07:19:52;;;;;;;;;2.00;2.00;;;;;;;;5009992;28;11627;-70
2021/01/22 07:22:19;;;;;;;;;1.75;1.75;;;;;;;;5004906;28;11521;-72
2021/01/22 07:24:49;;;;;;;;;1.75;1.75;;;;;;;;5010100;28;11514;-70
2021/01/22 07:27:16;;;;;;;;;1.00;1.00;;;;;;;;5008711;28;11535;-70
2021/01/22 07:29:43;;;;;;;;;4.00;1.00;;;;;;;;4998729;28;11509;-71
2021/01/22 07:32:12;;;;;;;;;1.00;1.00;;;;;;;;5006186;28;11500;-71
2021/01/22 07:34:43;;;;;;;;;1.00;1.00;;;;;;;;5003931;28;12433;-71
2021/01/22 07:37:11;;;;;;;;;0.75;0.75;;;;;;;;5004200;28;11491;-71
2021/01/22 07:39:38;;;;;;;;;5.50;5.50;;;;;;;;4987682;28;12293;-71
2021/01/22 07:42:08;;;;;;;;;3.25;2.00;;;;;;;;5002759;28;11590;-71
2021/01/22 07:44:36;;;;;;;;;5.00;2.00;;;;;;;;5002880;28;11667;-71
2021/01/22 07:47:03;;;;;;;;;5.50;4.00;;;;;;;;5002630;28;11611;-70
2021/01/22 07:49:30;;;;;;;;;5.00;5.00;;;;;;;;5006284;28;11603;-72
2021/01/22 07:51:59;;;;;;;;;4.75;4.00;;;;;;;;4991376;28;11605;-71
2021/01/22 07:54:25;;;;;;;;;4.50;4.50;;;;;;;;5003387;28;11587;-71
2021/01/22 07:56:52;;;;;;;;;3.50;2.00;;;;;;;;5003105;28;12428;-70
2021/01/22 07:59:20;;;;;;;;;8.75;4.25;;;;;;;;5003893;28;11834;-70
2021/01/22 08:01:47;;;;;;;;;4.00;4.00;;;;;;;;4999759;28;11568;-72
2021/01/22 08:04:27;;;;;;;;;3.00;3.00;;;;;;;;4989705;28;11640;-71
2021/01/22 08:06:54;;;;;;;;;4.50;4.25;;;;;;;;4998253;28;11615;-71
2021/01/22 08:09:21;;;;;;;;;3.00;2.50;;;;;;;;5003119;28;11609;-72
2021/01/22 08:11:48;;;;;;;;;4.25;4.25;;;;;;;;4991103;28;11602;-72
2021/01/22 08:14:30;;;;;;;;;4.00;4.00;;;;;;;;5004300;28;11592;-71
2021/01/22 08:16:57;;;;;;;;;4.00;3.50;;;;;;;;5007068;28;11570;-71
2021/01/22 08:19:25;;;;;;;;;4.25;4.25;;;;;;;;5008289;28;11663;-71
2021/01/22 08:21:53;;;;;;;;;8.50;5.50;;;;;;;;5003038;28;11587;-71
2021/01/22 08:24:20;;;;;;;;;7.00;7.00;;;;;;;;5004411;28;11606;-71
2021/01/22 08:26:55;;;;;;;;;6.25;6.25;;;;;;;;5003810;28;11589;-71
2021/01/22 08:29:21;;;;;;;;;5.50;5.50;;;;;;;;5000466;28;11536;-71
2021/01/22 08:31:50;;;;;;;;;9.00;6.50;;;;;;;;5003385;28;11506;-72
2021/01/22 08:34:17;;;;;;;;;9.75;9.00;;;;;;;;5008338;28;11710;-71
2021/01/22 08:36:44;;;;;;;;;9.75;9.75;;;;;;;;5002263;28;11563;-71
2021/01/22 08:39:11;;;;;;;;;13.00;13.00;;;;;;;;5003343;28;11634;-71
2021/01/22 08:41:38;;;;;;;;;16.25;13.50;;;;;;;;5001836;28;11716;-71
2021/01/22 08:44:06;;;;;;;;;21.25;17.00;;;;;;;;4987166;28;11641;-72
2021/01/22 08:46:33;;;;;;;;;13.50;13.50;;;;;;;;4985127;28;11643;-72
2021/01/22 08:49:12;;;;;;;;;11.00;11.00;;;;;;;;5004124;28;11656;-73
2021/01/22 08:51:39;;;;;;;;;8.75;8.75;;;;;;;;4990211;28;11563;-74
2021/01/22 08:54:06;;;;;;;;;6.50;6.50;;;;;;;;4996001;28;11573;-72
2021/01/22 08:56:33;;;;;;;;;6.00;6.00;;;;;;;;5002866;28;11509;-72
2021/01/22 08:59:05;;;;;;;;;5.00;5.00;;;;;;;;5003863;28;12309;-72
2021/01/22 09:01:47;;;;;;;;;5.00;5.00;;;;;;;;5002242;28;12286;-72
2021/01/22 09:04:25;;;;;;;;;4.00;4.00;;;;;;;;5003904;28;11524;-74
2021/01/22 09:06:53;;;;;;;;;5.00;5.00;;;;;;;;4997645;28;11512;-72
2021/01/22 09:09:35;;;;;;;;;5.00;5.00;;;;;;;;4983695;28;11539;-72
2021/01/22 09:12:08;;;;;;;;;2.25;2.25;;;;;;;;5001832;28;11547;-71
2021/01/22 09:14:54;;;;;;;;;1.75;1.75;;;;;;;;5003327;28;12297;-73
2021/01/22 09:17:41;;;;;;;;;2.00;2.00;;;;;;;;5003388;28;11569;-72
2021/01/22 09:20:14;;;;;;;;;1.75;1.75;;;;;;;;5002207;28;11525;-71
2021/01/22 09:22:42;;;;;;;;;1.00;1.00;;;;;;;;5006351;28;11547;-72
2021/01/22 09:25:11;;;;;;;;;2.00;2.00;;;;;;;;5008222;28;12498;-71
2021/01/22 09:27:39;;;;;;;;;1.00;1.00;;;;;;;;5007281;28;11524;-73
2021/01/22 09:30:08;;;;;;;;;1.50;1.50;;;;;;;;5015237;28;12332;-72
2021/01/22 09:32:35;;;;;;;;;1.00;1.00;;;;;;;;5009110;28;11531;-71
2021/01/22 09:35:02;;;;;;;;;1.25;1.25;;;;;;;;5014070;28;11516;-71
2021/01/22 09:37:29;;;;;;;;;3.75;3.75;;;;;;;;5007481;28;11647;-71
2021/01/22 09:39:56;;;;;;;;;2.50;2.50;;;;;;;;5006429;28;11547;-71
2021/01/22 09:42:23;;;;;;;;;2.00;2.00;;;;;;;;4989622;28;12346;-71
2021/01/22 09:44:50;;;;;;;;;2.00;2.00;;;;;;;;4989218;28;11541;-71
2021/01/22 09:47:17;;;;;;;;;1.25;1.25;;;;;;;;5006134;28;12304;-69
2021/01/22 09:49:44;;;;;;;;;5.00;2.25;;;;;;;;5007754;28;11543;-70
2021/01/22 09:52:11;;;;;;;;;7.50;2.75;;;;;;;;5006095;28;11515;-71
2021/01/22 09:54:39;;;;;;;;;4.75;4.75;;;;;;;;5007251;28;11555;-70
2021/01/22 09:57:06;;;;;;;;;4.00;2.00;;;;;;;;5005159;28;11670;-70
2021/01/22 09:59:33;;;;;;;;;4.00;4.00;;;;;;;;5007681;28;11516;-70
2021/01/22 10:01:59;;;;;;;;;6.00;2.00;;;;;;;;5005053;28;12391;-70
2021/01/22 10:04:26;;;;;;;;;3.75;3.75;;;;;;;;5006611;28;11566;-70
2021/01/22 10:06:53;;;;;;;;;4.00;4.00;;;;;;;;5006604;28;11512;-70
2021/01/22 10:09:20;;;;;;;;;6.00;4.50;;;;;;;;4989569;28;11525;-71
2021/01/22 10:11:48;;;;;;;;;2.00;2.00;;;;;;;;5006004;28;11527;-71
2021/01/22 10:14:15;;;;;;;;;4.00;4.00;;;;;;;;5004614;28;11517;-71
2021/01/22 10:16:42;;;;;;;;;8.75;3.25;;;;;;;;5007638;28;11562;-70
2021/01/22 10:19:09;;;;;;;;;5.00;5.00;;;;;;;;4997547;28;11525;-69
2021/01/22 10:21:36;;;;;;;;;4.25;4.25;;;;;;;;5006030;28;11540;-69
2021/01/22 10:24:03;;;;;;;;;10.75;8.25;;;;;;;;5004663;28;11548;-69
2021/01/22 10:26:30;;;;;;;;;5.00;5.00;;;;;;;;5005722;28;11604;-69
2021/01/22 10:28:57;;;;;;;;;9.00;5.25;;;;;;;;5002656;28;11537;-69
2021/01/22 10:31:25;;;;;;;;;2.50;2.50;;;;;;;;4984240;28;11519;-69
2021/01/22 10:33:52;;;;;;;;;7.75;5.00;;;;;;;;5004675;28;11557;-69
2021/01/22 10:36:18;;;;;;;;;8.75;6.00;;;;;;;;5004629;28;11551;-69
2021/01/22 10:38:46;;;;;;;;;8.00;8.00;;;;;;;;5005634;28;11672;-69
2021/01/22 10:41:15;;;;;;;;;10.25;8.50;;;;;;;;5005386;28;12287;-69
2021/01/22 10:43:42;;;;;;;;;7.00;7.00;;;;;;;;5002594;28;11597;-69
2021/01/22 10:46:09;;;;;;;;;5.50;5.50;;;;;;;;5004534;28;11511;-69
2021/01/22 10:48:36;;;;;;;;;9.50;6.50;;;;;;;;5004352;28;11538;-70
2021/01/22 10:51:04;;;;;;;;;5.25;5.25;;;;;;;;5007267;28;11549;-70
2021/01/22 10:53:31;;;;;;;;;10.00;5.50;;;;;;;;5003683;28;11517;-70
2021/01/22 10:55:58;;;;;;;;;7.50;7.50;;;;;;;;5013491;28;11530;-71
2021/01/22 10:58:25;;;;;;;;;8.00;6.50;;;;;;;;5005452;28;11668;-71
2021/01/22 11:00:53;;;;;;;;;9.00;9.00;;;;;;;;5004725;28;11499;-71
2021/01/22 11:03:24;;;;;;;;;6.75;6.00;;;;;;;;5006046;28;11537;-70
2021/01/22 11:05:51;;;;;;;;;9.25;8.50;;;;;;;;5000119;28;12265;-70
2021/01/22 11:08:18;;;;;;;;;6.00;6.00;;;;;;;;4993972;28;11252;-71
2021/01/22 11:10:44;;;;;;;;;7.75;6.75;;;;;;;;5003401;28;11211;-70
2021/01/22 11:13:11;;;;;;;;;10.00;10.00;;;;;;;;4996451;28;11554;-71
2021/01/22 11:15:38;;;;;;;;;7.75;7.00;;;;;;;;5003095;28;11130;-71
2021/01/22 11:18:05;;;;;;;;;6.50;6.50;;;;;;;;5007168;28;11051;-70
2021/01/22 11:20:33;;;;;;;;;10.25;8.75;;;;;;;;5005410;28;10955;-71
2021/01/22 11:23:00;;;;;;;;;9.25;9.25;;;;;;;;4991678;28;11747;-70
2021/01/22 11:25:27;;;;;;;;;6.25;6.25;;;;;;;;5004854;28;11301;-71
2021/01/22 11:27:54;;;;;;;;;12.25;9.50;;;;;;;;5009595;28;11201;-70
2021/01/22 11:30:22;;;;;;;;;10.00;10.00;;;;;;;;5004718;28;11553;-70
2021/01/22 11:32:56;;;;;;;;;9.00;9.00;;;;;;;;4986690;28;11297;-69
2021/01/22 11:35:31;;;;;;;;;11.25;11.25;;;;;;;;4987500;28;11311;-70
2021/01/22 11:38:00;;;;;;;;;10.25;7.25;;;;;;;;5004702;28;11327;-71
2021/01/22 11:40:27;;;;;;;;;10.00;9.75;;;;;;;;4970808;28;11061;-70
2021/01/22 11:42:54;;;;;;;;;10.50;9.00;;;;;;;;4998995;28;11116;-72
2021/01/22 11:45:21;;;;;;;;;8.75;7.00;;;;;;;;5002226;28;11272;-72
2021/01/22 11:47:48;;;;;;;;;6.00;6.00;;;;;;;;5003794;28;11059;-70
2021/01/22 11:50:15;;;;;;;;;7.75;6.25;;;;;;;;5000526;28;11133;-70
2021/01/22 11:52:42;;;;;;;;;9.75;7.75;;;;;;;;5002665;28;11091;-70
2021/01/22 11:55:11;;;;;;;;;6.25;6.25;;;;;;;;5002212;28;11078;-71
2021/01/22 11:57:38;;;;;;;;;8.00;6.50;;;;;;;;5002565;28;11022;-71
2021/01/22 12:00:06;;;;;;;;;8.50;6.75;;;;;;;;5002855;28;10825;-72
2021/01/22 12:02:33;;;;;;;;;6.00;6.00;;;;;;;;5002189;28;10818;-70
2021/01/22 12:05:00;;;;;;;;;6.50;6.50;;;;;;;;5004263;28;10824;-69
2021/01/22 12:07:27;;;;;;;;;3.25;2.00;;;;;;;;4983078;28;10656;-69
2021/01/22 12:09:55;;;;;;;;;8.00;8.00;;;;;;;;5009571;28;10672;-70
2021/01/22 12:12:23;;;;;;;;;9.50;6.00;;;;;;;;5002804;28;10852;-70
2021/01/22 12:14:51;;;;;;;;;6.00;6.00;;;;;;;;5002653;28;10825;-69
2021/01/22 12:17:18;;;;;;;;;5.50;5.50;;;;;;;;5001795;28;10749;-70
2021/01/22 12:19:44;;;;;;;;;7.00;5.50;;;;;;;;5001034;28;10925;-70
2021/01/22 12:22:12;;;;;;;;;3.50;3.50;;;;;;;;5001702;28;10970;-70
2021/01/22 12:24:39;;;;;;;;;4.00;4.00;;;;;;;;4997156;28;10994;-68
2021/01/22 12:27:06;;;;;;;;;4.50;4.50;;;;;;;;4998462;28;10814;-69
2021/01/22 12:29:33;;;;;;;;;5.00;5.00;;;;;;;;4997728;28;10947;-69
2021/01/22 12:32:01;;;;;;;;;6.00;6.00;;;;;;;;5001414;28;10728;-70
2021/01/22 12:34:28;;;;;;;;;6.25;4.75;;;;;;;;5000399;28;10518;-69
2021/01/22 12:36:55;;;;;;;;;2.50;2.50;;;;;;;;5002057;28;11522;-69
2021/01/22 12:39:21;;;;;;;;;3.75;3.75;;;;;;;;5003149;28;10483;-69
2021/01/22 12:41:50;;;;;;;;;3.25;3.25;;;;;;;;5001037;28;10401;-70
2021/01/22 12:44:17;;;;;;;;;5.50;3.00;;;;;;;;5004186;28;10351;-70
2021/01/22 12:46:44;;;;;;;;;3.00;3.00;;;;;;;;5001905;28;10267;-69
2021/01/22 12:49:11;;;;;;;;;3.00;3.00;;;;;;;;5003346;28;10288;-70
2021/01/22 12:51:38;;;;;;;;;4.75;4.00;;;;;;;;4999982;28;10118;-71
2021/01/22 12:54:05;;;;;;;;;7.00;3.00;;;;;;;;5002830;28;9996;-68
2021/01/22 12:56:33;;;;;;;;;4.50;1.50;;;;;;;;5003009;28;10537;-70
2021/01/22 12:58:59;;;;;;;;;3.50;2.00;;;;;;;;4998223;28;9756;-69
2021/01/22 13:01:27;;;;;;;;;3.00;3.00;;;;;;;;5002918;28;9666;-68
2021/01/22 13:03:54;;;;;;;;;2.00;2.00;;;;;;;;5001612;28;9941;-69
2021/01/22 13:06:21;;;;;;;;;2.25;2.25;;;;;;;;5003980;28;9946;-69
2021/01/22 13:08:48;;;;;;;;;2.25;2.25;;;;;;;;5012382;28;9928;-70
2021/01/22 13:11:15;;;;;;;;;7.00;3.00;;;;;;;;5002113;28;9989;-69
2021/01/22 13:13:41;;;;;;;;;2.75;2.75;;;;;;;;5004559;28;9795;-70
2021/01/22 13:16:09;;;;;;;;;2.00;2.00;;;;;;;;4987748;28;10581;-70
2021/01/22 13:18:35;;;;;;;;;1.00;1.00;;;;;;;;5003913;28;9687;-70
2021/01/22 13:21:03;;;;;;;;;2.25;2.25;;;;;;;;5002757;28;9897;-71
2021/01/22 13:23:30;;;;;;;;;3.75;2.50;;;;;;;;5004113;28;9907;-71
2021/01/22 13:25:57;;;;;;;;;2.50;1.25;;;;;;;;5002833;28;9891;-69
2021/01/22 13:28:24;;;;;;;;;2.50;2.50;;;;;;;;5002158;28;9671;-69
2021/01/22 13:30:52;;;;;;;;;2.00;2.00;;;;;;;;4999112;28;9664;-70
2021/01/22 13:33:19;;;;;;;;;1.00;1.00;;;;;;;;5002218;28;9765;-69
2021/01/22 13:35:46;;;;;;;;;2.00;2.00;;;;;;;;5010160;28;9898;-70
2021/01/22 13:38:14;;;;;;;;;2.00;2.00;;;;;;;;5002186;28;9518;-70
2021/01/22 13:40:41;;;;;;;;;1.00;1.00;;;;;;;;4999568;28;9603;-70
2021/01/22 13:43:08;;;;;;;;;1.00;1.00;;;;;;;;5002527;28;9373;-70
2021/01/22 13:45:37;;;;;;;;;3.00;1.00;;;;;;;;5003454;28;9209;-68
2021/01/22 13:48:04;;;;;;;;;1.00;1.00;;;;;;;;5001688;28;10060;-70
2021/01/22 13:50:33;;;;;;;;;2.33;2.00;;;;;;;;5002770;28;9120;-68
2021/01/22 13:53:00;;;;;;;;;0.67;0.67;;;;;;;;5003567;28;9181;-69
2021/01/22 13:55:28;;;;;;;;;2.00;2.00;;;;;;;;5000749;28;9043;-70
2021/01/22 13:57:55;;;;;;;;;3.00;1.00;;;;;;;;5003249;28;9202;-70
2021/01/22 14:00:23;;;;;;;;;3.00;1.00;;;;;;;;5001420;28;9793;-70
2021/01/22 14:02:51;;;;;;;;;3.00;1.00;;;;;;;;5006643;28;9828;-70
2021/01/22 14:05:18;;;;;;;;;2.00;1.00;;;;;;;;5002709;28;10097;-70
2021/01/22 14:07:45;;;;;;;;;4.00;1.00;;;;;;;;5006762;28;9058;-72
2021/01/22 14:10:12;;;;;;;;;1.00;1.00;;;;;;;;5003934;28;9031;-70
2021/01/22 14:12:40;;;;;;;;;3.00;2.00;;;;;;;;4996826;28;9092;-70
2021/01/22 14:15:08;;;;;;;;;0.33;0.33;;;;;;;;5014763;28;10365;-70
2021/01/22 14:17:34;;;;;;;;;1.00;1.00;;;;;;;;5005995;28;9117;-70
2021/01/22 14:20:01;;;;;;;;;1.00;1.00;;;;;;;;5013769;28;9107;-70
2021/01/22 14:22:28;;;;;;;;;2.00;0.33;;;;;;;;5006758;28;9211;-70
2021/01/22 14:24:55;;;;;;;;;0.00;0.00;;;;;;;;5013160;28;9249;-71
2021/01/22 14:27:21;;;;;;;;;1.00;1.00;;;;;;;;5003529;28;9181;-71
2021/01/22 14:29:49;;;;;;;;;1.67;1.00;;;;;;;;5003349;28;9215;-71
2021/01/22 14:32:16;;;;;;;;;0.33;0.33;;;;;;;;5006579;28;9312;-71
2021/01/22 14:34:43;;;;;;;;;0.00;0.00;;;;;;;;5005632;28;9443;-71
2021/01/22 14:37:09;;;;;;;;;1.00;1.00;;;;;;;;5006637;28;9502;-70
2021/01/22 14:39:36;;;;;;;;;1.00;1.00;;;;;;;;5005065;28;9527;-70
2021/01/22 14:42:07;;;;;;;;;1.00;1.00;;;;;;;;5006653;28;9562;-70
2021/01/22 14:44:34;;;;;;;;;0.50;0.50;;;;;;;;5005796;28;10435;-71
2021/01/22 14:47:02;;;;;;;;;1.50;0.50;;;;;;;;5013723;28;9655;-69
2021/01/22 14:49:29;;;;;;;;;0.50;0.50;;;;;;;;5006504;28;9811;-71